createdAt,value
2022-10-22T00:01:07.269Z,9.02
2022-10-22T00:03:34.919Z,10.50
2022-10-22T00:06:04.574Z,8.57
2022-10-22T00:08:32.347Z,9.48
2022-10-22T00:10:59.958Z,8.27
2022-10-22T00:13:27.535Z,9.32
2022-10-22T00:15:57.062Z,9.10
2022-10-22T00:18:24.612Z,9.38
2022-10-22T00:20:54.130Z,8.88
2022-10-22T00:23:21.836Z,9.60
2022-10-22T00:25:49.464Z,8.40
2022-10-22T00:28:17.437Z,8.63
2022-10-22T00:30:44.991Z,7.82
2022-10-22T00:33:12.793Z,9.45
2022-10-22T00:35:40.508Z,7.68
2022-10-22T00:38:08.194Z,10.65
2022-10-22T00:40:37.005Z,10.68
2022-10-22T00:43:05.131Z,7.43
2022-10-22T00:45:32.842Z,10.68
2022-10-22T00:48:07.901Z,6.80
2022-10-22T00:51:08.492Z,9.65
2022-10-22T00:53:43.977Z,8.65
2022-10-22T00:56:12.021Z,7.47
2022-10-22T00:58:45.404Z,10.05
2022-10-22T01:01:21.590Z,11.90
2022-10-22T01:03:50.669Z,11.13
2022-10-22T01:06:28.419Z,10.25
2022-10-22T01:09:04.983Z,11.45
2022-10-22T01:11:50.071Z,11.93
2022-10-22T01:14:32.680Z,10.93
2022-10-22T01:17:09.130Z,11.60
2022-10-22T01:19:43.321Z,10.70
2022-10-22T01:23:07.686Z,13.52
2022-10-22T01:25:44.502Z,12.65
2022-10-22T01:28:39.927Z,12.88
2022-10-22T01:31:09.560Z,12.30
2022-10-22T01:36:05.584Z,11.52
2022-10-22T01:38:34.320Z,13.70
2022-10-22T01:41:02.647Z,13.30
2022-10-22T01:43:30.338Z,13.95
2022-10-22T01:46:01.130Z,12.43
2022-10-22T01:48:55.736Z,11.88
2022-10-22T01:51:35.013Z,13.00
2022-10-22T01:54:17.721Z,14.48
2022-10-22T01:56:54.838Z,10.77
2022-10-22T01:59:37.318Z,11.48
2022-10-22T02:02:32.878Z,10.98
2022-10-22T02:05:10.439Z,12.40
2022-10-22T02:07:45.075Z,14.10
2022-10-22T02:10:14.473Z,11.85
2022-10-22T02:12:45.097Z,12.95
2022-10-22T02:15:15.825Z,12.35
2022-10-22T02:17:46.443Z,14.57
2022-10-22T02:20:23.238Z,12.30
2022-10-22T02:22:51.099Z,11.63
2022-10-22T02:25:21.441Z,13.13
2022-10-22T02:28:13.268Z,11.10
2022-10-22T02:30:44.288Z,11.10
2022-10-22T02:33:41.220Z,14.40
2022-10-22T02:36:09.671Z,14.32
2022-10-22T02:38:40.587Z,15.23
2022-10-22T02:43:42.520Z,12.50
2022-10-22T02:46:11.305Z,13.85
2022-10-22T02:48:38.813Z,11.40
2022-10-22T02:51:06.993Z,12.40
2022-10-22T02:53:35.363Z,18.00
2022-10-22T02:56:02.956Z,12.68
2022-10-22T02:58:30.824Z,12.60
2022-10-22T03:00:58.410Z,13.50
2022-10-22T03:03:26.385Z,13.32
2022-10-22T03:05:53.887Z,12.05
2022-10-22T03:08:21.458Z,15.68
2022-10-22T03:10:49.104Z,13.52
2022-10-22T03:13:18.440Z,14.00
2022-10-22T03:15:49.057Z,10.52
2022-10-22T03:18:17.708Z,12.90
2022-10-22T03:20:45.214Z,10.65
2022-10-22T03:23:16.101Z,13.52
2022-10-22T03:25:45.138Z,12.77
2022-10-22T03:33:10.879Z,10.40
2022-10-22T03:35:46.168Z,16.33
2022-10-22T03:38:14.665Z,11.48
2022-10-22T03:40:43.926Z,11.57
2022-10-22T03:43:12.553Z,11.88
2022-10-22T03:45:40.355Z,10.43
2022-10-22T03:48:08.002Z,10.32
2022-10-22T03:50:35.724Z,12.95
2022-10-22T03:53:04.381Z,10.32
2022-10-22T03:55:31.993Z,12.77
2022-10-22T03:57:59.515Z,11.88
2022-10-22T04:00:26.969Z,13.13
2022-10-22T04:02:54.480Z,11.60
2022-10-22T04:05:22.410Z,12.80
2022-10-22T04:07:49.924Z,13.82
2022-10-22T04:10:19.091Z,10.48
2022-10-22T04:12:49.844Z,12.25
2022-10-22T04:15:17.957Z,11.18
2022-10-22T04:17:45.775Z,12.65
2022-10-22T04:20:13.781Z,13.23
2022-10-22T04:22:44.033Z,13.55
2022-10-22T04:25:11.790Z,14.07
2022-10-22T04:27:39.603Z,12.98
2022-10-22T04:30:08.050Z,15.20
2022-10-22T04:32:36.525Z,12.13
2022-10-22T04:35:04.441Z,14.80
2022-10-22T04:37:33.053Z,12.00
2022-10-22T04:40:00.575Z,10.73
2022-10-22T04:42:28.402Z,10.52
2022-10-22T04:44:55.828Z,16.52
2022-10-22T04:47:23.507Z,16.40
2022-10-22T04:49:51.232Z,13.77
2022-10-22T04:52:18.781Z,14.20
2022-10-22T04:54:47.428Z,13.18
2022-10-22T04:57:15.052Z,11.98
2022-10-22T04:59:43.671Z,14.30
2022-10-22T05:02:11.148Z,15.20
2022-10-22T05:04:38.646Z,16.83
2022-10-22T05:09:35.884Z,15.70
2022-10-22T05:12:03.536Z,14.25
2022-10-22T05:14:31.250Z,15.43
2022-10-22T05:16:59.501Z,15.27
2022-10-22T05:19:29.584Z,14.40
2022-10-22T05:22:01.671Z,16.38
2022-10-22T05:24:30.714Z,15.50
2022-10-22T05:26:59.600Z,13.47
2022-10-22T05:29:27.729Z,12.80
2022-10-22T05:31:56.049Z,12.57
2022-10-22T05:34:23.789Z,25.35
2022-10-22T05:36:52.514Z,13.93
2022-10-22T05:39:20.221Z,17.52
2022-10-22T05:41:47.728Z,14.70
2022-10-22T05:44:17.104Z,18.48
2022-10-22T05:46:44.629Z,13.07
2022-10-22T05:49:14.995Z,13.00
2022-10-22T05:51:42.559Z,12.45
2022-10-22T05:54:17.851Z,14.75
2022-10-22T05:56:46.981Z,16.10
2022-10-22T05:59:14.708Z,18.23
2022-10-22T06:01:42.379Z,17.83
2022-10-22T06:04:13.131Z,20.73
2022-10-22T06:06:44.658Z,22.55
2022-10-22T06:09:15.339Z,23.70
2022-10-22T06:11:43.183Z,23.02
2022-10-22T06:14:11.591Z,29.52
2022-10-22T06:16:39.553Z,28.55
2022-10-22T06:19:09.721Z,32.70
2022-10-22T06:21:37.740Z,27.80
2022-10-22T06:24:05.613Z,26.52
2022-10-22T06:26:33.463Z,23.95
2022-10-22T06:29:01.891Z,25.52
2022-10-22T06:31:29.854Z,26.65
2022-10-22T06:33:58.150Z,27.95
2022-10-22T06:36:25.706Z,25.15
2022-10-22T06:38:55.411Z,22.85
2022-10-22T06:43:57.662Z,19.88
2022-10-22T06:46:26.897Z,21.20
2022-10-22T06:48:57.532Z,21.80
2022-10-22T06:51:26.221Z,18.52
2022-10-22T06:53:55.585Z,16.23
2022-10-22T06:56:24.496Z,21.10
2022-10-22T06:58:53.871Z,16.73
2022-10-22T07:01:24.234Z,12.15
2022-10-22T07:03:53.042Z,8.43
2022-10-22T07:06:21.935Z,8.80
2022-10-22T07:08:50.028Z,10.20
2022-10-22T07:11:23.312Z,10.55
2022-10-22T07:13:53.572Z,10.05
2022-10-22T07:16:21.096Z,14.65
2022-10-22T07:18:49.535Z,11.60
2022-10-22T07:21:19.332Z,9.88
2022-10-22T07:23:47.998Z,7.80
2022-10-22T07:26:17.232Z,11.40
2022-10-22T07:28:44.721Z,9.65
2022-10-22T07:31:14.723Z,9.07
2022-10-22T07:33:42.400Z,9.07
2022-10-22T07:36:17.333Z,9.38
2022-10-22T07:38:48.336Z,8.18
2022-10-22T07:41:17.009Z,10.57
2022-10-22T07:43:44.839Z,8.98
2022-10-22T07:46:13.065Z,7.30
2022-10-22T07:48:40.830Z,8.40
2022-10-22T07:51:08.391Z,10.88
2022-10-22T07:53:37.105Z,6.65
2022-10-22T07:56:08.512Z,8.52
2022-10-22T07:58:36.736Z,7.30
2022-10-22T08:01:05.962Z,6.00
2022-10-22T08:03:34.772Z,8.02
2022-10-22T08:06:03.176Z,8.88
2022-10-22T08:08:31.012Z,8.60
2022-10-22T08:11:01.055Z,8.85
2022-10-22T08:13:32.758Z,7.88
2022-10-22T08:16:02.177Z,7.03
2022-10-22T08:18:30.422Z,6.00
2022-10-22T08:20:58.697Z,7.18
2022-10-22T08:23:28.759Z,6.85
2022-10-22T08:25:57.642Z,7.82
2022-10-22T08:28:25.721Z,6.85
2022-10-22T08:30:53.312Z,7.25
2022-10-22T08:33:20.926Z,8.02
2022-10-22T08:35:53.181Z,8.25
2022-10-22T08:38:21.359Z,13.88
2022-10-22T08:40:53.124Z,12.52
2022-10-22T08:44:02.631Z,5.40
2022-10-22T08:46:59.605Z,6.53
2022-10-22T08:49:39.730Z,10.75
2022-10-22T08:52:14.697Z,7.38
2022-10-22T08:54:52.564Z,8.55
2022-10-22T08:57:26.373Z,4.53
2022-10-22T09:00:04.216Z,5.78
2022-10-22T09:02:39.715Z,5.13
2022-10-22T09:05:22.825Z,3.92
2022-10-22T09:07:53.229Z,4.93
2022-10-22T09:10:25.786Z,4.18
2022-10-22T09:12:54.332Z,4.07
2022-10-22T09:15:21.798Z,2.90
2022-10-22T09:18:05.705Z,6.00
2022-10-22T09:20:45.243Z,3.95
2022-10-22T09:23:18.843Z,6.32
2022-10-22T09:25:47.063Z,4.40
2022-10-22T09:28:18.215Z,4.43
2022-10-22T09:30:46.063Z,6.05
2022-10-22T09:33:25.237Z,5.55
2022-10-22T09:35:59.330Z,5.32
2022-10-22T09:38:29.486Z,5.82
2022-10-22T09:41:03.954Z,4.20
2022-10-22T09:43:32.499Z,4.00
2022-10-22T09:46:15.366Z,4.07
2022-10-22T09:48:50.346Z,5.07
2022-10-22T09:51:35.747Z,4.70
2022-10-22T09:54:18.524Z,3.63
2022-10-22T09:57:03.633Z,3.55
2022-10-22T09:59:34.120Z,4.95
2022-10-22T10:02:37.968Z,2.85
2022-10-22T10:05:19.297Z,3.35
2022-10-22T10:07:48.220Z,5.53
2022-10-22T10:10:27.796Z,3.53
2022-10-22T10:13:03.890Z,4.43
2022-10-22T10:15:53.472Z,3.85
2022-10-22T10:18:59.029Z,8.27
2022-10-22T10:21:52.902Z,3.13
2022-10-22T10:24:58.347Z,4.88
2022-10-22T10:27:38.729Z,3.38
2022-10-22T10:30:18.537Z,3.17
2022-10-22T10:35:55.369Z,1.83
2022-10-22T10:38:43.227Z,2.95
2022-10-22T10:41:19.313Z,5.43
2022-10-22T10:44:28.111Z,2.22
2022-10-22T10:47:10.705Z,2.50
2022-10-22T10:49:38.593Z,2.67
2022-10-22T10:52:09.094Z,6.70
2022-10-22T10:55:00.731Z,3.05
2022-10-22T10:57:39.986Z,9.52
2022-10-22T11:00:21.148Z,2.42
2022-10-22T11:05:35.479Z,3.38
2022-10-22T11:08:24.881Z,2.60
2022-10-22T11:10:54.879Z,1.92
2022-10-22T11:16:16.238Z,4.47
2022-10-22T11:18:58.328Z,4.30
2022-10-22T11:21:36.408Z,4.43
2022-10-22T11:24:14.131Z,2.42
2022-10-22T11:26:50.751Z,4.47
2022-10-22T11:29:35.348Z,2.83
2022-10-22T11:32:04.007Z,3.75
2022-10-22T11:34:45.800Z,15.52
2022-10-22T11:37:14.913Z,4.95
2022-10-22T11:39:47.654Z,2.10
2022-10-22T11:42:34.912Z,3.63
2022-10-22T11:45:29.122Z,1.60
2022-10-22T11:47:56.889Z,1.80
2022-10-22T11:50:28.562Z,2.45
2022-10-22T11:52:59.199Z,2.78
2022-10-22T11:55:35.011Z,2.78
2022-10-22T11:58:28.569Z,2.17
2022-10-22T12:00:56.192Z,3.45
2022-10-22T12:03:32.670Z,5.35
2022-10-22T12:06:12.224Z,2.72
2022-10-22T12:08:51.393Z,4.95
2022-10-22T12:11:37.149Z,5.47
2022-10-22T12:14:26.966Z,2.97
2022-10-22T12:17:09.825Z,2.00
2022-10-22T12:19:39.928Z,2.10
2022-10-22T12:22:10.575Z,4.47
2022-10-22T12:24:41.715Z,2.40
2022-10-22T12:27:22.455Z,2.80
2022-10-22T12:29:56.276Z,2.55
2022-10-22T12:32:29.695Z,5.55
2022-10-22T12:34:57.216Z,4.97
2022-10-22T12:37:25.147Z,2.35
2022-10-22T12:39:53.709Z,1.50
2022-10-22T12:42:23.847Z,2.67
2022-10-22T12:44:55.868Z,1.80
2022-10-22T12:47:23.660Z,4.10
2022-10-22T12:49:51.688Z,2.45
2022-10-22T12:52:22.964Z,5.70
2022-10-22T12:54:55.153Z,3.25
2022-10-22T12:57:23.136Z,2.30
2022-10-22T12:59:52.173Z,3.20
2022-10-22T13:02:25.428Z,4.10
2022-10-22T13:05:22.946Z,2.83
2022-10-22T13:07:53.335Z,2.60
2022-10-22T13:10:26.608Z,3.33
2022-10-22T13:12:58.966Z,5.45
2022-10-22T13:15:35.784Z,7.57
2022-10-22T13:18:18.963Z,3.58
2022-10-22T13:21:03.249Z,4.65
2022-10-22T13:23:33.909Z,2.75
2022-10-22T13:26:17.895Z,4.57
2022-10-22T13:28:56.219Z,4.10
2022-10-22T13:31:27.348Z,3.70
2022-10-22T13:34:09.845Z,3.70
2022-10-22T13:36:41.689Z,3.33
2022-10-22T13:39:18.132Z,3.20
2022-10-22T13:41:46.282Z,3.25
2022-10-22T13:44:14.165Z,4.90
2022-10-22T13:46:43.439Z,3.03
2022-10-22T13:49:15.920Z,4.95
2022-10-22T13:51:44.433Z,6.43
2022-10-22T13:54:24.520Z,6.32
2022-10-22T13:56:53.702Z,2.33
2022-10-22T13:59:23.772Z,3.28
2022-10-22T14:01:52.258Z,3.47
2022-10-22T14:04:19.773Z,3.13
2022-10-22T14:06:50.410Z,2.97
2022-10-22T14:09:18.471Z,3.83
2022-10-22T14:11:46.119Z,2.95
2022-10-22T14:14:17.402Z,2.67
2022-10-22T14:16:46.424Z,5.35
2022-10-22T14:19:18.323Z,2.67
2022-10-22T14:21:47.168Z,4.03
2022-10-22T14:24:15.380Z,2.97
2022-10-22T14:26:44.080Z,4.85
2022-10-22T14:29:12.085Z,3.22
2022-10-22T14:31:42.262Z,5.80
2022-10-22T14:34:12.599Z,3.60
2022-10-22T14:36:40.459Z,3.40
2022-10-22T14:39:09.042Z,4.90
2022-10-22T14:41:38.224Z,4.25
2022-10-22T14:44:05.800Z,4.68
2022-10-22T14:46:34.908Z,4.78
2022-10-22T14:49:02.972Z,5.15
2022-10-22T14:53:59.928Z,6.00
2022-10-22T14:56:27.505Z,7.88
2022-10-22T14:58:55.082Z,7.60
2022-10-22T15:01:22.611Z,7.28
2022-10-22T15:03:50.093Z,10.13
2022-10-22T15:06:17.951Z,11.25
2022-10-22T15:08:45.898Z,8.18
2022-10-22T15:11:15.550Z,9.60
2022-10-22T15:13:43.691Z,10.73
2022-10-22T15:16:15.949Z,9.60
2022-10-22T15:18:43.713Z,11.95
2022-10-22T15:21:22.581Z,14.20
2022-10-22T15:23:50.213Z,9.90
2022-10-22T15:26:17.975Z,11.50
2022-10-22T15:28:46.300Z,10.52
2022-10-22T15:31:14.989Z,12.48
2022-10-22T15:33:45.004Z,7.32
2022-10-22T15:36:15.601Z,14.15
2022-10-22T15:38:43.303Z,8.38
2022-10-22T15:41:12.719Z,10.30
2022-10-22T15:46:30.843Z,9.95
2022-10-22T15:49:01.378Z,9.93
2022-10-22T15:51:29.086Z,12.13
2022-10-22T15:53:58.544Z,7.57
2022-10-22T15:58:58.992Z,11.73
2022-10-22T16:01:27.564Z,8.27
2022-10-22T16:04:02.896Z,8.90
2022-10-22T16:06:33.832Z,7.75
2022-10-22T16:09:02.757Z,7.60
2022-10-22T16:11:31.319Z,6.97
2022-10-22T16:14:00.364Z,8.63
2022-10-22T16:16:30.068Z,8.90
2022-10-22T16:18:58.171Z,7.18
2022-10-22T16:21:30.276Z,11.52
2022-10-22T16:24:05.912Z,6.65
2022-10-22T16:26:35.581Z,6.80
2022-10-22T16:29:04.404Z,5.47
2022-10-22T16:31:31.950Z,6.37
2022-10-22T16:33:59.475Z,5.00
2022-10-22T16:36:26.996Z,4.65
2022-10-22T16:38:56.442Z,5.35
2022-10-22T16:41:25.581Z,5.57
2022-10-22T16:43:55.336Z,4.65
2022-10-22T16:48:52.866Z,6.50
2022-10-22T16:51:23.630Z,4.93
2022-10-22T16:53:52.587Z,5.75
2022-10-22T16:56:20.854Z,9.50
2022-10-22T16:58:53.937Z,6.25
2022-10-22T17:01:24.285Z,5.30
2022-10-22T17:03:52.702Z,6.47
2022-10-22T17:06:21.711Z,5.57
2022-10-22T17:08:49.364Z,7.15
2022-10-22T17:11:20.294Z,7.00
2022-10-22T17:13:49.709Z,8.23
2022-10-22T17:16:20.948Z,5.38
2022-10-22T17:18:49.074Z,5.20
2022-10-22T17:21:17.352Z,4.95
2022-10-22T17:23:46.868Z,7.28
2022-10-22T17:26:19.636Z,6.72
2022-10-22T17:28:48.772Z,5.50
2022-10-22T17:33:51.829Z,6.35
2022-10-22T17:38:50.894Z,7.90
2022-10-22T17:41:22.366Z,6.22
2022-10-22T17:43:50.322Z,9.15
2022-10-22T17:46:20.849Z,5.97
2022-10-22T17:48:56.298Z,6.97
2022-10-22T17:51:26.277Z,5.50
2022-10-22T17:53:54.116Z,6.97
2022-10-22T17:56:24.336Z,8.45
2022-10-22T17:58:52.889Z,6.85
2022-10-22T18:01:25.276Z,7.22
2022-10-22T18:03:55.053Z,7.97
2022-10-22T18:06:23.170Z,10.18
2022-10-22T18:08:50.894Z,7.38
2022-10-22T18:11:21.248Z,9.00
2022-10-22T18:13:54.941Z,9.55
2022-10-22T18:16:22.488Z,11.23
2022-10-22T18:18:53.197Z,9.25
2022-10-22T18:21:22.543Z,7.97
2022-10-22T18:23:50.565Z,10.20
2022-10-22T18:26:21.417Z,11.15
2022-10-22T18:28:51.919Z,10.93
2022-10-22T18:31:21.690Z,9.48
2022-10-22T18:33:50.331Z,12.13
2022-10-22T18:36:20.394Z,10.35
2022-10-22T18:38:53.046Z,10.02
2022-10-22T18:41:21.838Z,8.95
2022-10-22T18:43:57.171Z,11.43
2022-10-22T18:46:28.466Z,11.38
2022-10-22T18:48:57.932Z,14.38
2022-10-22T18:51:30.724Z,11.00
2022-10-22T18:54:05.247Z,12.38
2022-10-22T18:56:34.857Z,9.15
2022-10-22T18:59:02.787Z,11.18
2022-10-22T19:01:30.656Z,8.40
2022-10-22T19:03:59.588Z,10.48
2022-10-22T19:06:34.335Z,10.77
2022-10-22T19:09:05.800Z,10.82
2022-10-22T19:11:33.972Z,12.57
2022-10-22T19:14:01.917Z,12.40
2022-10-22T19:16:30.456Z,10.80
2022-10-22T19:19:02.299Z,13.77
2022-10-22T19:21:30.536Z,10.18
2022-10-22T19:24:00.773Z,10.35
2022-10-22T19:26:31.177Z,14.48
2022-10-22T19:29:11.158Z,10.85
2022-10-22T19:31:40.992Z,11.35
2022-10-22T19:34:11.463Z,13.43
2022-10-22T19:36:39.027Z,9.65
2022-10-22T19:39:06.931Z,12.93
2022-10-22T19:41:35.284Z,10.02
2022-10-22T19:44:02.992Z,9.73
2022-10-22T19:46:32.740Z,13.50
2022-10-22T19:49:03.036Z,11.52
2022-10-22T19:51:31.934Z,11.40
2022-10-22T19:54:03.336Z,9.55
2022-10-22T19:56:34.105Z,10.73
2022-10-22T19:59:04.511Z,13.73
2022-10-22T20:01:32.718Z,14.23
2022-10-22T20:04:01.668Z,17.38
2022-10-22T20:06:30.429Z,13.75
2022-10-22T20:09:00.584Z,14.50
2022-10-22T20:11:30.429Z,17.08
2022-10-22T20:16:30.139Z,15.73
2022-10-22T20:19:04.288Z,12.70
2022-10-22T20:21:32.541Z,14.05
2022-10-22T20:24:01.758Z,12.90
2022-10-22T20:26:29.647Z,13.95
2022-10-22T20:28:58.424Z,12.07
2022-10-22T20:31:28.661Z,13.63
2022-10-22T20:34:02.136Z,14.30
2022-10-22T20:36:31.231Z,11.25
2022-10-22T20:39:06.387Z,13.38
2022-10-22T20:41:37.976Z,13.65
2022-10-22T20:44:05.801Z,15.57
2022-10-22T20:46:34.477Z,13.57
2022-10-22T20:49:07.319Z,13.23
2022-10-22T20:51:36.220Z,14.07
2022-10-22T20:54:05.251Z,14.00
2022-10-22T20:56:34.642Z,13.20
2022-10-22T20:59:05.488Z,14.70
2022-10-22T21:01:40.265Z,12.73
2022-10-22T21:04:08.169Z,15.13
2022-10-22T21:06:38.352Z,14.98
2022-10-22T21:09:10.697Z,15.23
2022-10-22T21:11:39.557Z,12.23
2022-10-22T21:14:08.785Z,12.02
2022-10-22T21:16:39.952Z,20.70
2022-10-22T21:19:07.900Z,13.93
2022-10-22T21:21:35.771Z,15.55
2022-10-22T21:24:03.724Z,13.75
2022-10-22T21:26:32.539Z,11.55
2022-10-22T21:29:00.087Z,14.75
2022-10-22T21:31:27.970Z,12.55
2022-10-22T21:33:55.963Z,11.57
2022-10-22T21:36:24.281Z,10.60
2022-10-22T21:38:53.026Z,12.23
2022-10-22T21:41:23.725Z,12.93
2022-10-22T21:43:52.174Z,10.00
2022-10-22T21:46:22.669Z,9.40
2022-10-22T21:48:59.312Z,9.27
2022-10-22T21:51:29.660Z,14.43
2022-10-22T21:53:57.981Z,9.80
2022-10-22T21:56:27.962Z,9.20
2022-10-22T21:58:55.991Z,9.73
2022-10-22T22:01:24.079Z,9.23
2022-10-22T22:03:52.679Z,9.45
2022-10-22T22:06:22.570Z,10.63
2022-10-22T22:08:52.772Z,9.18
2022-10-22T22:11:23.405Z,9.02
2022-10-22T22:13:52.001Z,12.45
2022-10-22T22:16:28.749Z,13.60
2022-10-22T22:19:02.243Z,11.50
2022-10-22T22:21:30.781Z,10.55
2022-10-22T22:23:58.726Z,8.30
2022-10-22T22:26:30.066Z,7.47
2022-10-22T22:28:59.836Z,8.02
2022-10-22T22:31:33.421Z,14.63
2022-10-22T22:34:06.304Z,17.48
2022-10-22T22:36:40.197Z,12.30
2022-10-22T22:39:11.329Z,11.02
2022-10-22T22:41:38.959Z,7.97
2022-10-22T22:44:06.881Z,8.88
2022-10-22T22:46:34.571Z,10.18
2022-10-22T22:49:02.219Z,8.75
2022-10-22T22:51:30.441Z,10.13
2022-10-22T22:54:00.225Z,9.73
2022-10-22T22:56:30.523Z,7.95
2022-10-22T22:58:58.830Z,9.77
2022-10-22T23:01:34.401Z,9.70
2022-10-22T23:04:06.484Z,9.70
2022-10-22T23:06:37.258Z,11.55
2022-10-22T23:09:06.698Z,10.48
2022-10-22T23:11:34.961Z,7.63
2022-10-22T23:14:04.481Z,7.10
2022-10-22T23:16:36.904Z,9.05
2022-10-22T23:19:06.382Z,8.55
2022-10-22T23:21:36.853Z,10.13
2022-10-22T23:24:08.852Z,14.85
2022-10-22T23:26:39.248Z,9.00
2022-10-22T23:29:10.833Z,10.35
2022-10-22T23:31:39.441Z,9.30
2022-10-22T23:34:07.906Z,8.02
2022-10-22T23:36:36.577Z,8.48
2022-10-22T23:39:09.501Z,7.77
2022-10-22T23:41:38.154Z,10.73
2022-10-22T23:44:07.593Z,8.90
2022-10-22T23:46:38.632Z,12.85
2022-10-22T23:49:08.023Z,13.32
2022-10-22T23:51:36.673Z,7.80
2022-10-22T23:54:07.006Z,12.02
2022-10-22T23:56:35.737Z,10.88
2022-10-22T23:59:05.045Z,11.63
